Century Bright — 3ENZ8 — position and weather

sailwx.info

Track history (hours):
 
Tides and Currents Weather Stations Pressure Air Temp Water Temp Dewpoint Dewpoint Depression Visibility Wind Speed Wind Dir Waves Ship Positions

Century Bright

Last reported at 2018-Feb-22 12:51 UTC. Time now 2018-Feb-23 04:44 UTC.
Position N 19°24' W 095°59'.

Length 136 m; draft 6 m.

Type: Cargo ship. MMSI: 371210000.

Date/timePositionNaut miles runAvg speedWind from/ knotsBaromVisibWave heightAir tempDewpointWater temp
2018-Feb-22 12:51N 19°24' W 095°59'411.7
2018-Feb-22 12:29N 19°20' W 095°58'610.9
2018-Feb-22 11:57N 19°14' W 095°58'511.4
2018-Feb-22 11:30N 19°12' W 096°03'4 8.8
2018-Feb-22 11:00N 19°12' W 096°07'1 1.6
2018-Feb-22 10:25N 19°12' W 096°08'0 0.0
2018-Feb-22 09:58N 19°12' W 096°08'0 0.0
2018-Feb-22 09:25N 19°12' W 096°08'0 0.0
2018-Feb-22 08:55N 19°12' W 096°08'0 0.0
2018-Feb-22 08:25N 19°12' W 096°08'0 0.0
2018-Feb-22 07:55N 19°12' W 096°08'0 0.0
2018-Feb-22 07:28N 19°12' W 096°08'0 0.0
2018-Feb-22 06:58N 19°12' W 096°08'0 0.0
2018-Feb-22 06:25N 19°12' W 096°08'0 0.0
2018-Feb-22 05:55N 19°12' W 096°08'0 0.0
2018-Feb-22 05:25N 19°12' W 096°08'0 0.0
2018-Feb-22 04:55N 19°12' W 096°08'0 0.0
2018-Feb-22 04:22N 19°12' W 096°08'0 0.0
2018-Feb-22 03:55N 19°12' W 096°08'0 0.0
2018-Feb-22 03:25N 19°12' W 096°08'0 0.0
2018-Feb-22 02:55N 19°12' W 096°08'0 0.0
2018-Feb-22 02:25N 19°12' W 096°08'0 0.0
2018-Feb-22 01:55N 19°12' W 096°08'0 0.0
2018-Feb-22 01:19N 19°12' W 096°08'0 0.0
2018-Feb-22 00:58N 19°12' W 096°08'0 0.0
2018-Feb-22 00:25N 19°12' W 096°08'0 0.0
2018-Feb-21 23:55N 19°12' W 096°08'0 0.0
2018-Feb-21 23:19N 19°12' W 096°08'0 0.0
2018-Feb-21 22:49N 19°12' W 096°08'0 0.0
2018-Feb-21 22:25N 19°12' W 096°08'0 0.0
2018-Feb-21 21:55N 19°12' W 096°08'0 0.0
2018-Feb-21 21:16N 19°12' W 096°08'0 0.0
2018-Feb-21 20:49N 19°12' W 096°08'0 0.0
2018-Feb-21 20:25N 19°12' W 096°08'0 0.0
2018-Feb-21 19:55N 19°12' W 096°08'0 0.0
2018-Feb-21 19:19N 19°12' W 096°08'0 0.0
2018-Feb-21 18:55N 19°12' W 096°08'0 0.0
2018-Feb-21 18:22N 19°12' W 096°08'0 0.0
2018-Feb-21 17:49N 19°12' W 096°08'0 0.0
2018-Feb-21 17:30N 19°12' W 096°08'0 0.0
2018-Feb-21 16:55N 19°12' W 096°08'0 0.0
2018-Feb-21 16:25N 19°12' W 096°08'0 0.0
2018-Feb-21 15:55N 19°12' W 096°08'0 0.0
2018-Feb-21 15:25N 19°12' W 096°08'0 0.0
2018-Feb-21 14:55N 19°12' W 096°08'0 0.0
2018-Feb-21 14:28N 19°12' W 096°08'0 0.0
2018-Feb-21 13:37N 19°12' W 096°08'0 0.0
2018-Feb-21 13:28N 19°12' W 096°08'0 0.0
2018-Feb-21 12:52N 19°12' W 096°08'0 0.0
2018-Feb-21 12:25N 19°12' W 096°08'0 0.0
2018-Feb-21 11:43N 19°12' W 096°08'0 0.0
2018-Feb-21 11:07N 19°12' W 096°08'0 0.0
2018-Feb-21 10:55N 19°12' W 096°08'0 0.0
2018-Feb-21 10:25N 19°12' W 096°08'0 0.0
2018-Feb-21 09:55N 19°12' W 096°08'0 0.0
2018-Feb-21 09:25N 19°12' W 096°08'0 0.0
2018-Feb-21 08:58N 19°12' W 096°08'0 0.0
2018-Feb-21 08:25N 19°12' W 096°08'0 0.0
2018-Feb-21 07:49N 19°12' W 096°08'0 0.0
2018-Feb-21 07:25N 19°12' W 096°08'0 0.0
2018-Feb-21 06:55N 19°12' W 096°08'0 0.0
2018-Feb-21 06:25N 19°12' W 096°08'0 0.0
2018-Feb-21 05:55N 19°12' W 096°08'0 0.0
2018-Feb-21 05:25N 19°12' W 096°08'0 0.0
2018-Feb-21 04:55N 19°12' W 096°08'0 0.0
2018-Feb-21 04:25N 19°12' W 096°08'0 0.0
2018-Feb-21 03:49N 19°12' W 096°08'0 0.0
2018-Feb-21 03:27N 19°12' W 096°08'0 0.6
2018-Feb-21 03:00N 19°12' W 096°08'4 7.2
2018-Feb-21 02:25N 19°12' W 096°03'2 3.9
2018-Feb-21 01:57N 19°12' W 096°02'2 3.9
2018-Feb-21 01:29N 19°12' W 095°60'2 4.1
2018-Feb-21 01:00N 19°13' W 095°58'4 8.0
2018-Feb-21 00:29N 19°14' W 095°54'811.6
2018-Feb-20 23:46N 19°15' W 095°45'511.6
2018-Feb-20 23:18N 19°17' W 095°40'411.2
2018-Feb-20 22:56N 19°19' W 095°36'511.2
2018-Feb-20 22:30N 19°21' W 095°31'  
2018-Feb-15 13:15N 27°41' W 082°34'311.8
2018-Feb-15 13:00N 27°43' W 082°32'510.4
2018-Feb-15 12:30N 27°48' W 082°29'510.2
2018-Feb-15 12:00N 27°52' W 082°27'3 6.3
2018-Feb-15 11:30N 27°55' W 082°26'0 0.4
2018-Feb-15 10:40N 27°56' W 082°26'0 0.0
2018-Feb-15 10:28N 27°56' W 082°26'0 0.0
2018-Feb-15 09:55N 27°56' W 082°26'0 0.0
2018-Feb-15 09:22N 27°56' W 082°26'0 0.0
2018-Feb-15 08:58N 27°56' W 082°26'0 0.0
2018-Feb-15 08:28N 27°56' W 082°26'0 0.0
2018-Feb-15 07:49N 27°56' W 082°26'0 0.0
2018-Feb-15 07:22N 27°56' W 082°26'0 0.0
2018-Feb-15 06:40N 27°56' W 082°26'0 0.0
2018-Feb-15 06:16N 27°56' W 082°26'0 0.0
2018-Feb-15 05:58N 27°56' W 082°26'0 0.0
2018-Feb-15 05:28N 27°56' W 082°26'0 0.0
2018-Feb-15 04:58N 27°56' W 082°26'0 0.0
2018-Feb-15 04:28N 27°56' W 082°26'0 0.0
2018-Feb-15 03:58N 27°56' W 082°26'0 0.0
2018-Feb-15 03:22N 27°56' W 082°26'0 0.0
2018-Feb-15 02:55N 27°56' W 082°26'0 0.0
2018-Feb-15 02:19N 27°56' W 082°26'0 0.1
2018-Feb-15 01:55N 27°56' W 082°26'0 0.1
2018-Feb-15 01:30N 27°56' W 082°26'1 1.4
2018-Feb-15 01:00N 27°55' W 082°25'0 0.0
2018-Feb-15 00:27N 27°55' W 082°25'0 0.0
2018-Feb-14 23:54N 27°55' W 082°25'0 0.0
2018-Feb-14 23:27N 27°55' W 082°25'0 0.0
2018-Feb-14 22:57N 27°55' W 082°25'0 0.0
2018-Feb-14 22:24N 27°55' W 082°25'0 0.0
2018-Feb-14 22:00N 27°55' W 082°25'0 0.0
2018-Feb-14 21:27N 27°55' W 082°25'0 0.0
2018-Feb-14 21:00N 27°55' W 082°25'0 0.0
2018-Feb-14 20:15N 27°55' W 082°25'0 0.0
2018-Feb-14 19:57N 27°55' W 082°25'0 0.0
2018-Feb-14 19:27N 27°55' W 082°25'0 0.0
2018-Feb-14 18:54N 27°55' W 082°25'0 0.0
2018-Feb-14 18:12N 27°55' W 082°25'0 0.0
2018-Feb-14 18:00N 27°55' W 082°25'0 0.0
2018-Feb-14 17:30N 27°55' W 082°25'0 0.0
2018-Feb-14 16:48N 27°55' W 082°25'0 0.0
2018-Feb-14 16:30N 27°55' W 082°25'0 0.0
2018-Feb-14 15:45N 27°55' W 082°25'0 0.0
2018-Feb-14 15:24N 27°55' W 082°25'0 0.0
2018-Feb-14 15:00N 27°55' W 082°25'0 0.0
2018-Feb-14 14:03N 27°55' W 082°25'0 0.0
2018-Feb-14 13:48N 27°55' W 082°25'0 0.0
2018-Feb-14 13:30N 27°55' W 082°25'0 0.0
2018-Feb-14 13:00N 27°55' W 082°25'0 0.0
2018-Feb-14 12:21N 27°55' W 082°25'0 0.0
2018-Feb-14 12:00N 27°55' W 082°25'0 0.0
2018-Feb-14 11:30N 27°55' W 082°25'0 0.0
2018-Feb-14 10:51N 27°55' W 082°25'0 0.0
2018-Feb-14 10:27N 27°55' W 082°25'0 0.0
2018-Feb-14 10:00N 27°55' W 082°25'0 0.0
2018-Feb-14 09:27N 27°55' W 082°25'0 0.0
2018-Feb-14 09:00N 27°55' W 082°25'0 0.0
2018-Feb-14 08:30N 27°55' W 082°25'0 0.0
2018-Feb-14 07:57N 27°55' W 082°25'0 0.0
2018-Feb-14 07:30N 27°55' W 082°25'0 0.0
2018-Feb-14 06:51N 27°55' W 082°25'0 0.0
2018-Feb-14 06:27N 27°55' W 082°25'0 0.0
2018-Feb-14 06:00N 27°55' W 082°25'0 0.0
2018-Feb-14 05:30N 27°55' W 082°25'3 5.1
2018-Feb-14 05:00N 27°53' W 082°26'510.8
2018-Feb-14 04:30N 27°48' W 082°29'611.8
2018-Feb-14 04:00N 27°43' W 082°33'713.5
2018-Feb-14 03:30N 27°38' W 082°38'  
Track history (hours):
 
Tides and Currents Weather Stations Pressure Air Temp Water Temp Dewpoint Dewpoint Depression Visibility Wind Speed Wind Dir Waves Ship Positions

Century Bright

Last reported at 2018-Feb-22 12:51 UTC. Time now 2018-Feb-23 04:44 UTC.
Position N 19°24' W 095°59'.

Length 136 m; draft 6 m.

Type: Cargo ship. MMSI: 371210000.

Date/timePositionNaut miles runAvg speedWind from/ knotsBaromVisibWave heightAir tempDewpointWater temp
2018-Feb-22 12:51N 19°24' W 095°59'411.7
2018-Feb-22 12:29N 19°20' W 095°58'610.9
2018-Feb-22 11:57N 19°14' W 095°58'511.4
2018-Feb-22 11:30N 19°12' W 096°03'4 8.8
2018-Feb-22 11:00N 19°12' W 096°07'1 1.6
2018-Feb-22 10:25N 19°12' W 096°08'0 0.0
2018-Feb-22 09:58N 19°12' W 096°08'0 0.0
2018-Feb-22 09:25N 19°12' W 096°08'0 0.0
2018-Feb-22 08:55N 19°12' W 096°08'0 0.0
2018-Feb-22 08:25N 19°12' W 096°08'0 0.0
2018-Feb-22 07:55N 19°12' W 096°08'0 0.0
2018-Feb-22 07:28N 19°12' W 096°08'0 0.0
2018-Feb-22 06:58N 19°12' W 096°08'0 0.0
2018-Feb-22 06:25N 19°12' W 096°08'0 0.0
2018-Feb-22 05:55N 19°12' W 096°08'0 0.0
2018-Feb-22 05:25N 19°12' W 096°08'0 0.0
2018-Feb-22 04:55N 19°12' W 096°08'0 0.0
2018-Feb-22 04:22N 19°12' W 096°08'0 0.0
2018-Feb-22 03:55N 19°12' W 096°08'0 0.0
2018-Feb-22 03:25N 19°12' W 096°08'0 0.0
2018-Feb-22 02:55N 19°12' W 096°08'0 0.0
2018-Feb-22 02:25N 19°12' W 096°08'0 0.0
2018-Feb-22 01:55N 19°12' W 096°08'0 0.0
2018-Feb-22 01:19N 19°12' W 096°08'0 0.0
2018-Feb-22 00:58N 19°12' W 096°08'0 0.0
2018-Feb-22 00:25N 19°12' W 096°08'0 0.0
2018-Feb-21 23:55N 19°12' W 096°08'0 0.0
2018-Feb-21 23:19N 19°12' W 096°08'0 0.0
2018-Feb-21 22:49N 19°12' W 096°08'0 0.0
2018-Feb-21 22:25N 19°12' W 096°08'0 0.0
2018-Feb-21 21:55N 19°12' W 096°08'0 0.0
2018-Feb-21 21:16N 19°12' W 096°08'0 0.0
2018-Feb-21 20:49N 19°12' W 096°08'0 0.0
2018-Feb-21 20:25N 19°12' W 096°08'0 0.0
2018-Feb-21 19:55N 19°12' W 096°08'0 0.0
2018-Feb-21 19:19N 19°12' W 096°08'0 0.0
2018-Feb-21 18:55N 19°12' W 096°08'0 0.0
2018-Feb-21 18:22N 19°12' W 096°08'0 0.0
2018-Feb-21 17:49N 19°12' W 096°08'0 0.0
2018-Feb-21 17:30N 19°12' W 096°08'0 0.0
2018-Feb-21 16:55N 19°12' W 096°08'0 0.0
2018-Feb-21 16:25N 19°12' W 096°08'0 0.0
2018-Feb-21 15:55N 19°12' W 096°08'0 0.0
2018-Feb-21 15:25N 19°12' W 096°08'0 0.0
2018-Feb-21 14:55N 19°12' W 096°08'0 0.0
2018-Feb-21 14:28N 19°12' W 096°08'0 0.0
2018-Feb-21 13:37N 19°12' W 096°08'0 0.0
2018-Feb-21 13:28N 19°12' W 096°08'0 0.0
2018-Feb-21 12:52N 19°12' W 096°08'0 0.0
2018-Feb-21 12:25N 19°12' W 096°08'0 0.0
2018-Feb-21 11:43N 19°12' W 096°08'0 0.0
2018-Feb-21 11:07N 19°12' W 096°08'0 0.0
2018-Feb-21 10:55N 19°12' W 096°08'0 0.0
2018-Feb-21 10:25N 19°12' W 096°08'0 0.0
2018-Feb-21 09:55N 19°12' W 096°08'0 0.0
2018-Feb-21 09:25N 19°12' W 096°08'0 0.0
2018-Feb-21 08:58N 19°12' W 096°08'0 0.0
2018-Feb-21 08:25N 19°12' W 096°08'0 0.0
2018-Feb-21 07:49N 19°12' W 096°08'0 0.0
2018-Feb-21 07:25N 19°12' W 096°08'0 0.0
2018-Feb-21 06:55N 19°12' W 096°08'0 0.0
2018-Feb-21 06:25N 19°12' W 096°08'0 0.0
2018-Feb-21 05:55N 19°12' W 096°08'0 0.0
2018-Feb-21 05:25N 19°12' W 096°08'0 0.0
2018-Feb-21 04:55N 19°12' W 096°08'0 0.0
2018-Feb-21 04:25N 19°12' W 096°08'0 0.0
2018-Feb-21 03:49N 19°12' W 096°08'0 0.0
2018-Feb-21 03:27N 19°12' W 096°08'0 0.6
2018-Feb-21 03:00N 19°12' W 096°08'4 7.2
2018-Feb-21 02:25N 19°12' W 096°03'2 3.9
2018-Feb-21 01:57N 19°12' W 096°02'2 3.9
2018-Feb-21 01:29N 19°12' W 095°60'2 4.1
2018-Feb-21 01:00N 19°13' W 095°58'4 8.0
2018-Feb-21 00:29N 19°14' W 095°54'811.6
2018-Feb-20 23:46N 19°15' W 095°45'511.6
2018-Feb-20 23:18N 19°17' W 095°40'411.2
2018-Feb-20 22:56N 19°19' W 095°36'511.2
2018-Feb-20 22:30N 19°21' W 095°31'  
2018-Feb-15 13:15N 27°41' W 082°34'311.8
2018-Feb-15 13:00N 27°43' W 082°32'510.4
2018-Feb-15 12:30N 27°48' W 082°29'510.2
2018-Feb-15 12:00N 27°52' W 082°27'3 6.3
2018-Feb-15 11:30N 27°55' W 082°26'0 0.4
2018-Feb-15 10:40N 27°56' W 082°26'0 0.0
2018-Feb-15 10:28N 27°56' W 082°26'0 0.0
2018-Feb-15 09:55N 27°56' W 082°26'0 0.0
2018-Feb-15 09:22N 27°56' W 082°26'0 0.0
2018-Feb-15 08:58N 27°56' W 082°26'0 0.0
2018-Feb-15 08:28N 27°56' W 082°26'0 0.0
2018-Feb-15 07:49N 27°56' W 082°26'0 0.0
2018-Feb-15 07:22N 27°56' W 082°26'0 0.0
2018-Feb-15 06:40N 27°56' W 082°26'0 0.0
2018-Feb-15 06:16N 27°56' W 082°26'0 0.0
2018-Feb-15 05:58N 27°56' W 082°26'0 0.0
2018-Feb-15 05:28N 27°56' W 082°26'0 0.0
2018-Feb-15 04:58N 27°56' W 082°26'0 0.0
2018-Feb-15 04:28N 27°56' W 082°26'0 0.0
2018-Feb-15 03:58N 27°56' W 082°26'0 0.0
2018-Feb-15 03:22N 27°56' W 082°26'0 0.0
2018-Feb-15 02:55N 27°56' W 082°26'0 0.0
2018-Feb-15 02:19N 27°56' W 082°26'0 0.1
2018-Feb-15 01:55N 27°56' W 082°26'0 0.1
2018-Feb-15 01:30N 27°56' W 082°26'1 1.4
2018-Feb-15 01:00N 27°55' W 082°25'0 0.0
2018-Feb-15 00:27N 27°55' W 082°25'0 0.0
2018-Feb-14 23:54N 27°55' W 082°25'0 0.0
2018-Feb-14 23:27N 27°55' W 082°25'0 0.0
2018-Feb-14 22:57N 27°55' W 082°25'0 0.0
2018-Feb-14 22:24N 27°55' W 082°25'0 0.0
2018-Feb-14 22:00N 27°55' W 082°25'0 0.0
2018-Feb-14 21:27N 27°55' W 082°25'0 0.0
2018-Feb-14 21:00N 27°55' W 082°25'0 0.0
2018-Feb-14 20:15N 27°55' W 082°25'0 0.0
2018-Feb-14 19:57N 27°55' W 082°25'0 0.0
2018-Feb-14 19:27N 27°55' W 082°25'0 0.0
2018-Feb-14 18:54N 27°55' W 082°25'0 0.0
2018-Feb-14 18:12N 27°55' W 082°25'0 0.0
2018-Feb-14 18:00N 27°55' W 082°25'0 0.0
2018-Feb-14 17:30N 27°55' W 082°25'0 0.0
2018-Feb-14 16:48N 27°55' W 082°25'0 0.0
2018-Feb-14 16:30N 27°55' W 082°25'0 0.0
2018-Feb-14 15:45N 27°55' W 082°25'0 0.0
2018-Feb-14 15:24N 27°55' W 082°25'0 0.0
2018-Feb-14 15:00N 27°55' W 082°25'0 0.0
2018-Feb-14 14:03N 27°55' W 082°25'0 0.0
2018-Feb-14 13:48N 27°55' W 082°25'0 0.0
2018-Feb-14 13:30N 27°55' W 082°25'0 0.0
2018-Feb-14 13:00N 27°55' W 082°25'0 0.0
2018-Feb-14 12:21N 27°55' W 082°25'0 0.0
2018-Feb-14 12:00N 27°55' W 082°25'0 0.0
2018-Feb-14 11:30N 27°55' W 082°25'0 0.0
2018-Feb-14 10:51N 27°55' W 082°25'0 0.0
2018-Feb-14 10:27N 27°55' W 082°25'0 0.0
2018-Feb-14 10:00N 27°55' W 082°25'0 0.0
2018-Feb-14 09:27N 27°55' W 082°25'0 0.0
2018-Feb-14 09:00N 27°55' W 082°25'0 0.0
2018-Feb-14 08:30N 27°55' W 082°25'0 0.0
2018-Feb-14 07:57N 27°55' W 082°25'0 0.0
2018-Feb-14 07:30N 27°55' W 082°25'0 0.0
2018-Feb-14 06:51N 27°55' W 082°25'0 0.0
2018-Feb-14 06:27N 27°55' W 082°25'0 0.0
2018-Feb-14 06:00N 27°55' W 082°25'0 0.0
2018-Feb-14 05:30N 27°55' W 082°25'3 5.1
2018-Feb-14 05:00N 27°53' W 082°26'510.8
2018-Feb-14 04:30N 27°48' W 082°29'611.8
2018-Feb-14 04:00N 27°43' W 082°33'713.5
2018-Feb-14 03:30N 27°38' W 082°38'  

Dump ship's entire track history